sensor_id;sensor_type;location;lat;lon;timestamp;P1;durP1;ratioP1;P2;durP2;ratioP2
4132;SDS011;2080;51.038;7.008;2022-12-18T00:01:30;343.53;;;107.10;;
4132;SDS011;2080;51.038;7.008;2022-12-18T00:03:56;343.03;;;113.60;;
4132;SDS011;2080;51.038;7.008;2022-12-18T00:06:22;351.57;;;103.23;;
4132;SDS011;2080;51.038;7.008;2022-12-18T00:08:48;370.47;;;129.03;;
4132;SDS011;2080;51.038;7.008;2022-12-18T00:11:20;330.40;;;100.50;;
4132;SDS011;2080;51.038;7.008;2022-12-18T00:13:46;339.43;;;112.87;;
4132;SDS011;2080;51.038;7.008;2022-12-18T00:16:12;354.13;;;96.30;;
4132;SDS011;2080;51.038;7.008;2022-12-18T00:18:38;336.83;;;73.93;;
4132;SDS011;2080;51.038;7.008;2022-12-18T00:21:04;358.03;;;111.77;;
4132;SDS011;2080;51.038;7.008;2022-12-18T00:23:29;353.53;;;106.10;;
4132;SDS011;2080;51.038;7.008;2022-12-18T00:26:04;385.30;;;213.33;;
4132;SDS011;2080;51.038;7.008;2022-12-18T00:28:32;349.53;;;107.20;;
4132;SDS011;2080;51.038;7.008;2022-12-18T00:31:01;354.13;;;113.60;;
4132;SDS011;2080;51.038;7.008;2022-12-18T00:33:27;354.20;;;94.40;;
4132;SDS011;2080;51.038;7.008;2022-12-18T00:35:54;386.40;;;207.13;;
4132;SDS011;2080;51.038;7.008;2022-12-18T00:38:27;355.27;;;153.97;;
4132;SDS011;2080;51.038;7.008;2022-12-18T00:40:55;356.57;;;98.83;;
4132;SDS011;2080;51.038;7.008;2022-12-18T00:43:21;348.47;;;99.20;;
4132;SDS011;2080;51.038;7.008;2022-12-18T00:45:46;347.90;;;91.73;;
4132;SDS011;2080;51.038;7.008;2022-12-18T00:48:11;350.33;;;135.07;;
4132;SDS011;2080;51.038;7.008;2022-12-18T00:50:37;367.47;;;132.67;;
4132;SDS011;2080;51.038;7.008;2022-12-18T00:53:04;370.53;;;178.93;;
4132;SDS011;2080;51.038;7.008;2022-12-18T00:55:32;373.83;;;164.00;;
4132;SDS011;2080;51.038;7.008;2022-12-18T00:57:57;375.30;;;192.23;;
4132;SDS011;2080;51.038;7.008;2022-12-18T01:00:23;357.30;;;154.50;;
4132;SDS011;2080;51.038;7.008;2022-12-18T01:02:50;368.03;;;165.67;;
4132;SDS011;2080;51.038;7.008;2022-12-18T01:05:18;338.87;;;106.03;;
4132;SDS011;2080;51.038;7.008;2022-12-18T01:07:43;350.70;;;143.33;;
4132;SDS011;2080;51.038;7.008;2022-12-18T01:10:12;358.30;;;115.70;;
4132;SDS011;2080;51.038;7.008;2022-12-18T01:12:37;340.37;;;125.03;;
4132;SDS011;2080;51.038;7.008;2022-12-18T01:15:03;355.37;;;147.80;;
4132;SDS011;2080;51.038;7.008;2022-12-18T01:17:31;347.87;;;114.13;;
4132;SDS011;2080;51.038;7.008;2022-12-18T01:19:56;351.27;;;118.87;;
4132;SDS011;2080;51.038;7.008;2022-12-18T01:22:21;327.93;;;97.07;;
4132;SDS011;2080;51.038;7.008;2022-12-18T01:24:49;336.10;;;92.57;;
4132;SDS011;2080;51.038;7.008;2022-12-18T01:27:14;339.40;;;115.67;;
4132;SDS011;2080;51.038;7.008;2022-12-18T01:29:39;343.37;;;132.33;;
4132;SDS011;2080;51.038;7.008;2022-12-18T01:32:07;339.87;;;84.50;;
4132;SDS011;2080;51.038;7.008;2022-12-18T01:34:36;330.17;;;92.20;;
4132;SDS011;2080;51.038;7.008;2022-12-18T01:37:02;346.60;;;96.67;;
4132;SDS011;2080;51.038;7.008;2022-12-18T01:39:27;338.60;;;118.23;;
4132;SDS011;2080;51.038;7.008;2022-12-18T01:41:53;337.37;;;120.93;;
4132;SDS011;2080;51.038;7.008;2022-12-18T01:47:13;399.23;;;215.13;;
4132;SDS011;2080;51.038;7.008;2022-12-18T01:49:40;352.33;;;91.40;;
4132;SDS011;2080;51.038;7.008;2022-12-18T01:52:14;342.67;;;94.23;;
4132;SDS011;2080;51.038;7.008;2022-12-18T01:54:39;439.60;;;276.23;;
4132;SDS011;2080;51.038;7.008;2022-12-18T01:57:05;388.77;;;224.37;;
4132;SDS011;2080;51.038;7.008;2022-12-18T01:59:32;343.43;;;80.03;;
4132;SDS011;2080;51.038;7.008;2022-12-18T02:02:01;404.70;;;228.73;;
4132;SDS011;2080;51.038;7.008;2022-12-18T02:04:27;412.20;;;250.30;;
4132;SDS011;2080;51.038;7.008;2022-12-18T02:09:40;342.57;;;113.80;;
4132;SDS011;2080;51.038;7.008;2022-12-18T02:12:15;334.30;;;117.70;;
4132;SDS011;2080;51.038;7.008;2022-12-18T02:14:44;365.53;;;145.23;;
4132;SDS011;2080;51.038;7.008;2022-12-18T02:17:11;401.77;;;216.47;;
4132;SDS011;2080;51.038;7.008;2022-12-18T02:22:13;337.27;;;113.97;;
4132;SDS011;2080;51.038;7.008;2022-12-18T02:27:09;353.93;;;159.10;;
4132;SDS011;2080;51.038;7.008;2022-12-18T02:32:31;349.20;;;144.53;;
4132;SDS011;2080;51.038;7.008;2022-12-18T02:35:04;387.83;;;173.77;;
4132;SDS011;2080;51.038;7.008;2022-12-18T02:37:30;362.50;;;173.73;;
4132;SDS011;2080;51.038;7.008;2022-12-18T02:39:57;384.97;;;206.53;;
4132;SDS011;2080;51.038;7.008;2022-12-18T02:42:23;363.77;;;183.07;;
4132;SDS011;2080;51.038;7.008;2022-12-18T02:44:51;373.20;;;175.30;;
4132;SDS011;2080;51.038;7.008;2022-12-18T02:47:17;390.53;;;193.80;;
4132;SDS011;2080;51.038;7.008;2022-12-18T02:50:07;356.57;;;143.60;;
4132;SDS011;2080;51.038;7.008;2022-12-18T02:55:15;387.33;;;199.63;;
4132;SDS011;2080;51.038;7.008;2022-12-18T03:02:47;364.43;;;176.77;;
4132;SDS011;2080;51.038;7.008;2022-12-18T03:05:18;368.63;;;153.50;;
4132;SDS011;2080;51.038;7.008;2022-12-18T03:07:50;367.80;;;181.30;;
4132;SDS011;2080;51.038;7.008;2022-12-18T03:10:18;368.73;;;160.27;;
4132;SDS011;2080;51.038;7.008;2022-12-18T03:12:46;374.03;;;130.63;;
4132;SDS011;2080;51.038;7.008;2022-12-18T03:15:27;419.10;;;210.30;;
4132;SDS011;2080;51.038;7.008;2022-12-18T03:17:56;400.23;;;236.67;;
4132;SDS011;2080;51.038;7.008;2022-12-18T03:20:22;399.50;;;207.37;;
4132;SDS011;2080;51.038;7.008;2022-12-18T03:22:51;398.07;;;234.03;;
4132;SDS011;2080;51.038;7.008;2022-12-18T03:25:18;410.30;;;267.23;;
4132;SDS011;2080;51.038;7.008;2022-12-18T03:27:47;387.43;;;175.23;;
4132;SDS011;2080;51.038;7.008;2022-12-18T03:30:16;357.43;;;152.57;;
4132;SDS011;2080;51.038;7.008;2022-12-18T03:33:05;392.93;;;182.03;;
4132;SDS011;2080;51.038;7.008;2022-12-18T03:35:37;401.10;;;247.40;;
4132;SDS011;2080;51.038;7.008;2022-12-18T03:38:06;378.00;;;197.53;;
4132;SDS011;2080;51.038;7.008;2022-12-18T03:40:43;382.00;;;201.70;;
4132;SDS011;2080;51.038;7.008;2022-12-18T03:46:03;407.80;;;214.03;;
4132;SDS011;2080;51.038;7.008;2022-12-18T03:48:35;394.17;;;243.00;;
4132;SDS011;2080;51.038;7.008;2022-12-18T03:51:06;406.43;;;255.63;;
4132;SDS011;2080;51.038;7.008;2022-12-18T03:53:39;388.10;;;205.10;;
4132;SDS011;2080;51.038;7.008;2022-12-18T03:56:05;395.10;;;219.67;;
4132;SDS011;2080;51.038;7.008;2022-12-18T03:58:35;362.87;;;173.93;;
4132;SDS011;2080;51.038;7.008;2022-12-18T04:01:05;365.67;;;137.73;;
4132;SDS011;2080;51.038;7.008;2022-12-18T04:03:31;361.10;;;120.23;;
4132;SDS011;2080;51.038;7.008;2022-12-18T04:06:00;336.23;;;122.60;;
4132;SDS011;2080;51.038;7.008;2022-12-18T04:08:28;364.43;;;166.80;;
4132;SDS011;2080;51.038;7.008;2022-12-18T04:10:54;373.53;;;191.93;;
4132;SDS011;2080;51.038;7.008;2022-12-18T04:13:23;347.27;;;140.43;;
4132;SDS011;2080;51.038;7.008;2022-12-18T04:15:48;359.63;;;156.70;;
4132;SDS011;2080;51.038;7.008;2022-12-18T04:18:13;345.20;;;128.03;;
4132;SDS011;2080;51.038;7.008;2022-12-18T04:20:40;372.57;;;175.30;;
4132;SDS011;2080;51.038;7.008;2022-12-18T04:23:06;381.10;;;200.97;;
4132;SDS011;2080;51.038;7.008;2022-12-18T04:25:31;366.67;;;165.37;;
4132;SDS011;2080;51.038;7.008;2022-12-18T04:27:59;364.30;;;176.67;;
4132;SDS011;2080;51.038;7.008;2022-12-18T04:30:24;372.83;;;172.27;;
4132;SDS011;2080;51.038;7.008;2022-12-18T04:32:49;352.17;;;132.17;;
4132;SDS011;2080;51.038;7.008;2022-12-18T04:35:17;363.73;;;178.33;;
4132;SDS011;2080;51.038;7.008;2022-12-18T04:37:42;363.57;;;118.20;;
4132;SDS011;2080;51.038;7.008;2022-12-18T04:40:07;336.63;;;69.70;;
4132;SDS011;2080;51.038;7.008;2022-12-18T04:42:35;361.10;;;172.23;;
4132;SDS011;2080;51.038;7.008;2022-12-18T04:45:01;332.37;;;106.70;;
4132;SDS011;2080;51.038;7.008;2022-12-18T04:47:26;361.93;;;147.57;;
4132;SDS011;2080;51.038;7.008;2022-12-18T04:49:51;373.10;;;183.00;;
4132;SDS011;2080;51.038;7.008;2022-12-18T04:52:18;350.63;;;148.83;;
4132;SDS011;2080;51.038;7.008;2022-12-18T04:54:46;350.40;;;149.47;;
4132;SDS011;2080;51.038;7.008;2022-12-18T04:57:11;344.97;;;117.27;;
4132;SDS011;2080;51.038;7.008;2022-12-18T04:59:39;349.80;;;150.80;;
4132;SDS011;2080;51.038;7.008;2022-12-18T05:02:04;330.80;;;112.60;;
4132;SDS011;2080;51.038;7.008;2022-12-18T05:04:29;332.17;;;125.90;;
4132;SDS011;2080;51.038;7.008;2022-12-18T05:06:54;347.60;;;138.13;;
4132;SDS011;2080;51.038;7.008;2022-12-18T05:09:19;354.63;;;155.23;;
4132;SDS011;2080;51.038;7.008;2022-12-18T05:11:47;341.77;;;124.67;;
4132;SDS011;2080;51.038;7.008;2022-12-18T05:14:14;343.73;;;128.07;;
4132;SDS011;2080;51.038;7.008;2022-12-18T05:16:42;331.40;;;112.63;;
4132;SDS011;2080;51.038;7.008;2022-12-18T05:19:07;334.60;;;116.97;;
4132;SDS011;2080;51.038;7.008;2022-12-18T05:21:32;352.50;;;138.87;;
4132;SDS011;2080;51.038;7.008;2022-12-18T05:23:57;347.00;;;143.10;;
4132;SDS011;2080;51.038;7.008;2022-12-18T05:26:25;340.00;;;129.93;;
4132;SDS011;2080;51.038;7.008;2022-12-18T05:28:50;338.30;;;130.07;;
4132;SDS011;2080;51.038;7.008;2022-12-18T05:31:15;332.87;;;111.90;;
4132;SDS011;2080;51.038;7.008;2022-12-18T05:33:40;334.30;;;116.20;;
4132;SDS011;2080;51.038;7.008;2022-12-18T05:36:06;331.17;;;108.70;;
4132;SDS011;2080;51.038;7.008;2022-12-18T05:38:33;318.57;;;87.13;;
4132;SDS011;2080;51.038;7.008;2022-12-18T05:41:01;327.70;;;102.43;;
4132;SDS011;2080;51.038;7.008;2022-12-18T05:43:26;325.43;;;100.07;;
4132;SDS011;2080;51.038;7.008;2022-12-18T05:45:52;337.80;;;118.17;;
4132;SDS011;2080;51.038;7.008;2022-12-18T05:48:18;342.03;;;119.77;;
4132;SDS011;2080;51.038;7.008;2022-12-18T05:50:43;352.53;;;147.47;;
4132;SDS011;2080;51.038;7.008;2022-12-18T05:53:15;339.43;;;134.60;;
4132;SDS011;2080;51.038;7.008;2022-12-18T05:55:43;320.67;;;91.97;;
4132;SDS011;2080;51.038;7.008;2022-12-18T05:58:09;336.33;;;103.87;;
4132;SDS011;2080;51.038;7.008;2022-12-18T06:00:38;349.73;;;144.93;;
4132;SDS011;2080;51.038;7.008;2022-12-18T06:03:05;365.67;;;141.43;;
4132;SDS011;2080;51.038;7.008;2022-12-18T06:05:36;326.77;;;106.03;;
4132;SDS011;2080;51.038;7.008;2022-12-18T06:08:02;335.33;;;109.13;;
4132;SDS011;2080;51.038;7.008;2022-12-18T06:10:27;334.80;;;121.17;;
4132;SDS011;2080;51.038;7.008;2022-12-18T06:12:55;325.87;;;97.00;;
4132;SDS011;2080;51.038;7.008;2022-12-18T06:15:23;349.77;;;136.77;;
4132;SDS011;2080;51.038;7.008;2022-12-18T06:17:48;338.10;;;133.43;;
4132;SDS011;2080;51.038;7.008;2022-12-18T06:20:16;350.63;;;152.57;;
4132;SDS011;2080;51.038;7.008;2022-12-18T06:22:43;375.27;;;111.30;;
4132;SDS011;2080;51.038;7.008;2022-12-18T06:25:11;336.33;;;109.20;;
4132;SDS011;2080;51.038;7.008;2022-12-18T06:27:36;349.83;;;115.77;;
4132;SDS011;2080;51.038;7.008;2022-12-18T06:30:04;323.27;;;99.43;;
4132;SDS011;2080;51.038;7.008;2022-12-18T06:32:34;349.37;;;160.17;;
4132;SDS011;2080;51.038;7.008;2022-12-18T06:34:59;337.10;;;122.53;;
4132;SDS011;2080;51.038;7.008;2022-12-18T06:37:27;333.87;;;125.90;;
4132;SDS011;2080;51.038;7.008;2022-12-18T06:39:52;339.40;;;113.93;;
4132;SDS011;2080;51.038;7.008;2022-12-18T06:42:25;375.30;;;161.40;;
4132;SDS011;2080;51.038;7.008;2022-12-18T06:44:50;326.70;;;92.07;;
4132;SDS011;2080;51.038;7.008;2022-12-18T06:47:18;316.63;;;93.93;;
4132;SDS011;2080;51.038;7.008;2022-12-18T06:49:43;331.50;;;100.20;;
4132;SDS011;2080;51.038;7.008;2022-12-18T06:52:08;340.67;;;114.90;;
4132;SDS011;2080;51.038;7.008;2022-12-18T06:54:36;338.93;;;108.20;;
4132;SDS011;2080;51.038;7.008;2022-12-18T06:57:01;364.53;;;173.27;;
4132;SDS011;2080;51.038;7.008;2022-12-18T06:59:26;337.73;;;114.93;;
4132;SDS011;2080;51.038;7.008;2022-12-18T07:01:52;348.20;;;152.37;;
4132;SDS011;2080;51.038;7.008;2022-12-18T07:04:17;323.00;;;105.87;;
4132;SDS011;2080;51.038;7.008;2022-12-18T07:06:44;339.73;;;115.07;;
4132;SDS011;2080;51.038;7.008;2022-12-18T07:09:09;348.67;;;121.63;;
4132;SDS011;2080;51.038;7.008;2022-12-18T07:11:35;333.73;;;118.53;;
4132;SDS011;2080;51.038;7.008;2022-12-18T07:14:02;327.47;;;108.60;;
4132;SDS011;2080;51.038;7.008;2022-12-18T07:16:27;321.10;;;101.60;;
4132;SDS011;2080;51.038;7.008;2022-12-18T07:18:58;350.03;;;124.83;;
4132;SDS011;2080;51.038;7.008;2022-12-18T07:21:24;334.17;;;118.30;;
4132;SDS011;2080;51.038;7.008;2022-12-18T07:23:49;339.20;;;115.20;;
4132;SDS011;2080;51.038;7.008;2022-12-18T07:26:16;315.20;;;82.20;;
4132;SDS011;2080;51.038;7.008;2022-12-18T07:28:41;327.17;;;97.90;;
4132;SDS011;2080;51.038;7.008;2022-12-18T07:31:14;326.73;;;118.33;;
4132;SDS011;2080;51.038;7.008;2022-12-18T07:33:39;340.63;;;112.47;;
4132;SDS011;2080;51.038;7.008;2022-12-18T07:36:05;315.03;;;75.40;;
4132;SDS011;2080;51.038;7.008;2022-12-18T07:38:31;318.60;;;86.50;;
4132;SDS011;2080;51.038;7.008;2022-12-18T07:41:04;329.47;;;94.33;;
4132;SDS011;2080;51.038;7.008;2022-12-18T07:43:32;320.03;;;86.70;;
4132;SDS011;2080;51.038;7.008;2022-12-18T07:45:57;313.10;;;72.33;;
4132;SDS011;2080;51.038;7.008;2022-12-18T07:48:22;382.03;;;183.93;;
4132;SDS011;2080;51.038;7.008;2022-12-18T07:50:48;334.53;;;107.83;;
4132;SDS011;2080;51.038;7.008;2022-12-18T07:53:13;332.90;;;88.43;;
4132;SDS011;2080;51.038;7.008;2022-12-18T07:55:41;335.17;;;109.13;;
4132;SDS011;2080;51.038;7.008;2022-12-18T07:58:11;318.73;;;91.03;;
4132;SDS011;2080;51.038;7.008;2022-12-18T08:00:38;373.17;;;172.93;;
4132;SDS011;2080;51.038;7.008;2022-12-18T08:03:07;311.80;;;69.37;;
4132;SDS011;2080;51.038;7.008;2022-12-18T08:05:32;346.13;;;95.37;;
4132;SDS011;2080;51.038;7.008;2022-12-18T08:07:59;325.80;;;96.20;;
4132;SDS011;2080;51.038;7.008;2022-12-18T08:10:27;326.97;;;92.17;;
4132;SDS011;2080;51.038;7.008;2022-12-18T08:12:52;336.67;;;98.17;;
4132;SDS011;2080;51.038;7.008;2022-12-18T08:15:17;341.33;;;85.93;;
4132;SDS011;2080;51.038;7.008;2022-12-18T08:17:42;325.20;;;95.00;;
4132;SDS011;2080;51.038;7.008;2022-12-18T08:20:08;336.80;;;115.40;;
4132;SDS011;2080;51.038;7.008;2022-12-18T08:22:34;337.73;;;88.17;;
4132;SDS011;2080;51.038;7.008;2022-12-18T08:24:59;355.97;;;128.50;;
4132;SDS011;2080;51.038;7.008;2022-12-18T08:27:24;336.03;;;118.93;;
4132;SDS011;2080;51.038;7.008;2022-12-18T08:29:50;357.13;;;128.43;;
4132;SDS011;2080;51.038;7.008;2022-12-18T08:32:15;340.47;;;135.13;;
4132;SDS011;2080;51.038;7.008;2022-12-18T08:34:40;339.87;;;119.20;;
4132;SDS011;2080;51.038;7.008;2022-12-18T08:37:05;336.87;;;108.33;;
4132;SDS011;2080;51.038;7.008;2022-12-18T08:39:30;340.20;;;128.20;;
4132;SDS011;2080;51.038;7.008;2022-12-18T08:41:55;361.73;;;153.87;;
4132;SDS011;2080;51.038;7.008;2022-12-18T08:44:50;374.10;;;160.90;;
4132;SDS011;2080;51.038;7.008;2022-12-18T08:47:15;355.00;;;143.93;;
4132;SDS011;2080;51.038;7.008;2022-12-18T08:49:40;351.27;;;151.80;;
4132;SDS011;2080;51.038;7.008;2022-12-18T08:52:05;363.17;;;136.77;;
4132;SDS011;2080;51.038;7.008;2022-12-18T08:54:31;367.70;;;152.87;;
4132;SDS011;2080;51.038;7.008;2022-12-18T08:56:56;359.57;;;124.13;;
4132;SDS011;2080;51.038;7.008;2022-12-18T08:59:24;371.60;;;198.27;;
4132;SDS011;2080;51.038;7.008;2022-12-18T09:01:53;359.50;;;133.70;;
4132;SDS011;2080;51.038;7.008;2022-12-18T09:04:18;351.30;;;147.50;;
4132;SDS011;2080;51.038;7.008;2022-12-18T09:06:43;322.40;;;100.10;;
4132;SDS011;2080;51.038;7.008;2022-12-18T09:09:15;327.27;;;101.93;;
4132;SDS011;2080;51.038;7.008;2022-12-18T09:11:45;334.87;;;114.33;;
4132;SDS011;2080;51.038;7.008;2022-12-18T09:14:10;378.67;;;155.73;;
4132;SDS011;2080;51.038;7.008;2022-12-18T09:16:35;329.80;;;89.87;;
4132;SDS011;2080;51.038;7.008;2022-12-18T09:19:01;337.73;;;89.03;;
4132;SDS011;2080;51.038;7.008;2022-12-18T09:21:27;317.57;;;87.37;;
4132;SDS011;2080;51.038;7.008;2022-12-18T09:23:54;351.00;;;90.47;;
4132;SDS011;2080;51.038;7.008;2022-12-18T09:26:19;370.57;;;148.60;;
4132;SDS011;2080;51.038;7.008;2022-12-18T09:28:45;335.97;;;116.97;;
4132;SDS011;2080;51.038;7.008;2022-12-18T09:31:16;334.27;;;107.00;;
4132;SDS011;2080;51.038;7.008;2022-12-18T09:33:41;335.33;;;117.83;;
4132;SDS011;2080;51.038;7.008;2022-12-18T09:36:07;374.53;;;148.00;;
4132;SDS011;2080;51.038;7.008;2022-12-18T09:38:36;452.80;;;352.93;;
4132;SDS011;2080;51.038;7.008;2022-12-18T09:43:46;607.70;;;550.53;;
4132;SDS011;2080;51.038;7.008;2022-12-18T09:46:23;501.43;;;447.00;;
4132;SDS011;2080;51.038;7.008;2022-12-18T09:48:51;501.63;;;448.00;;
4132;SDS011;2080;51.038;7.008;2022-12-18T09:51:20;637.07;;;577.97;;
4132;SDS011;2080;51.038;7.008;2022-12-18T09:53:54;647.93;;;587.90;;
4132;SDS011;2080;51.038;7.008;2022-12-18T09:56:20;624.37;;;565.90;;
4132;SDS011;2080;51.038;7.008;2022-12-18T09:58:50;644.03;;;584.47;;
4132;SDS011;2080;51.038;7.008;2022-12-18T10:01:18;558.23;;;502.03;;
4132;SDS011;2080;51.038;7.008;2022-12-18T10:03:45;461.63;;;354.77;;
4132;SDS011;2080;51.038;7.008;2022-12-18T10:06:12;415.37;;;233.00;;
4132;SDS011;2080;51.038;7.008;2022-12-18T10:13:57;412.13;;;212.00;;
4132;SDS011;2080;51.038;7.008;2022-12-18T10:21:45;417.27;;;213.20;;
4132;SDS011;2080;51.038;7.008;2022-12-18T10:26:51;343.53;;;71.27;;
4132;SDS011;2080;51.038;7.008;2022-12-18T10:29:19;359.63;;;103.00;;
4132;SDS011;2080;51.038;7.008;2022-12-18T10:31:44;369.90;;;105.33;;
4132;SDS011;2080;51.038;7.008;2022-12-18T10:34:10;378.47;;;142.20;;
4132;SDS011;2080;51.038;7.008;2022-12-18T10:36:35;373.73;;;104.23;;
4132;SDS011;2080;51.038;7.008;2022-12-18T10:39:21;362.47;;;84.30;;
4132;SDS011;2080;51.038;7.008;2022-12-18T10:41:50;324.33;;;73.03;;
4132;SDS011;2080;51.038;7.008;2022-12-18T10:46:46;359.37;;;87.37;;
4132;SDS011;2080;51.038;7.008;2022-12-18T10:49:47;326.23;;;71.63;;
4132;SDS011;2080;51.038;7.008;2022-12-18T10:52:17;334.43;;;84.30;;
4132;SDS011;2080;51.038;7.008;2022-12-18T10:54:47;332.50;;;73.37;;
4132;SDS011;2080;51.038;7.008;2022-12-18T10:57:33;326.03;;;54.03;;
4132;SDS011;2080;51.038;7.008;2022-12-18T10:59:59;341.60;;;87.77;;
4132;SDS011;2080;51.038;7.008;2022-12-18T11:02:37;456.33;;;383.87;;
4132;SDS011;2080;51.038;7.008;2022-12-18T11:05:03;950.23;;;516.07;;
4132;SDS011;2080;51.038;7.008;2022-12-18T11:07:51;1999.90;;;999.90;;
4132;SDS011;2080;51.038;7.008;2022-12-18T11:10:19;484.67;;;430.60;;
4132;SDS011;2080;51.038;7.008;2022-12-18T11:12:47;974.87;;;577.97;;
4132;SDS011;2080;51.038;7.008;2022-12-18T11:15:14;445.10;;;354.43;;
4132;SDS011;2080;51.038;7.008;2022-12-18T11:17:40;435.97;;;306.83;;
4132;SDS011;2080;51.038;7.008;2022-12-18T11:20:07;427.60;;;206.20;;
4132;SDS011;2080;51.038;7.008;2022-12-18T11:23:05;417.83;;;238.07;;
4132;SDS011;2080;51.038;7.008;2022-12-18T11:25:29;377.57;;;151.57;;
4132;SDS011;2080;51.038;7.008;2022-12-18T11:28:05;351.93;;;89.63;;
4132;SDS011;2080;51.038;7.008;2022-12-18T11:30:33;384.30;;;110.80;;
4132;SDS011;2080;51.038;7.008;2022-12-18T11:33:04;486.37;;;253.27;;
4132;SDS011;2080;51.038;7.008;2022-12-18T11:40:43;342.73;;;63.90;;
4132;SDS011;2080;51.038;7.008;2022-12-18T11:43:14;345.87;;;68.80;;
4132;SDS011;2080;51.038;7.008;2022-12-18T11:45:42;341.77;;;65.57;;
4132;SDS011;2080;51.038;7.008;2022-12-18T11:48:15;354.70;;;80.23;;
4132;SDS011;2080;51.038;7.008;2022-12-18T11:50:54;368.10;;;109.33;;
4132;SDS011;2080;51.038;7.008;2022-12-18T11:53:20;343.17;;;76.87;;
4132;SDS011;2080;51.038;7.008;2022-12-18T12:01:07;370.97;;;135.43;;
4132;SDS011;2080;51.038;7.008;2022-12-18T12:13:43;380.00;;;104.17;;
4132;SDS011;2080;51.038;7.008;2022-12-18T12:21:41;447.73;;;277.13;;
4132;SDS011;2080;51.038;7.008;2022-12-18T12:26:57;474.30;;;368.63;;
4132;SDS011;2080;51.038;7.008;2022-12-18T12:29:40;417.23;;;200.60;;
4132;SDS011;2080;51.038;7.008;2022-12-18T12:39:56;478.83;;;406.30;;
4132;SDS011;2080;51.038;7.008;2022-12-18T12:45:14;473.90;;;372.53;;
4132;SDS011;2080;51.038;7.008;2022-12-18T12:47:42;485.20;;;430.47;;
4132;SDS011;2080;51.038;7.008;2022-12-18T12:50:12;530.27;;;474.10;;
4132;SDS011;2080;51.038;7.008;2022-12-18T12:52:40;541.73;;;486.13;;
4132;SDS011;2080;51.038;7.008;2022-12-18T12:55:17;561.53;;;505.03;;
4132;SDS011;2080;51.038;7.008;2022-12-18T13:00:21;469.90;;;370.53;;
4132;SDS011;2080;51.038;7.008;2022-12-18T13:03:01;456.37;;;327.50;;
4132;SDS011;2080;51.038;7.008;2022-12-18T13:05:30;398.40;;;186.30;;
4132;SDS011;2080;51.038;7.008;2022-12-18T13:07:59;401.63;;;215.43;;
4132;SDS011;2080;51.038;7.008;2022-12-18T13:10:30;407.03;;;180.10;;
4132;SDS011;2080;51.038;7.008;2022-12-18T13:12:59;360.07;;;118.93;;
4132;SDS011;2080;51.038;7.008;2022-12-18T13:15:27;392.93;;;160.27;;
4132;SDS011;2080;51.038;7.008;2022-12-18T13:20:36;373.23;;;152.07;;
4132;SDS011;2080;51.038;7.008;2022-12-18T13:26:31;406.77;;;174.07;;
4132;SDS011;2080;51.038;7.008;2022-12-18T13:31:12;380.77;;;154.33;;
4132;SDS011;2080;51.038;7.008;2022-12-18T13:33:41;390.60;;;179.33;;
4132;SDS011;2080;51.038;7.008;2022-12-18T13:36:31;380.73;;;157.43;;
4132;SDS011;2080;51.038;7.008;2022-12-18T13:39:40;386.87;;;162.50;;
4132;SDS011;2080;51.038;7.008;2022-12-18T13:41:43;383.43;;;158.77;;
4132;SDS011;2080;51.038;7.008;2022-12-18T13:46:44;386.93;;;181.37;;
4132;SDS011;2080;51.038;7.008;2022-12-18T13:51:39;388.60;;;182.17;;
4132;SDS011;2080;51.038;7.008;2022-12-18T13:56:54;384.00;;;164.80;;
4132;SDS011;2080;51.038;7.008;2022-12-18T13:59:21;395.40;;;180.27;;
4132;SDS011;2080;51.038;7.008;2022-12-18T14:01:48;391.10;;;146.37;;
4132;SDS011;2080;51.038;7.008;2022-12-18T14:04:18;407.17;;;228.00;;
4132;SDS011;2080;51.038;7.008;2022-12-18T14:06:44;419.07;;;242.73;;
4132;SDS011;2080;51.038;7.008;2022-12-18T14:09:14;414.40;;;236.53;;
4132;SDS011;2080;51.038;7.008;2022-12-18T14:11:40;405.73;;;219.20;;
4132;SDS011;2080;51.038;7.008;2022-12-18T14:14:08;409.27;;;167.70;;
4132;SDS011;2080;51.038;7.008;2022-12-18T14:16:35;401.40;;;164.03;;
4132;SDS011;2080;51.038;7.008;2022-12-18T14:19:01;395.20;;;186.10;;
4132;SDS011;2080;51.038;7.008;2022-12-18T14:21:30;387.43;;;144.00;;
4132;SDS011;2080;51.038;7.008;2022-12-18T14:24:12;361.20;;;115.43;;
4132;SDS011;2080;51.038;7.008;2022-12-18T14:26:38;343.63;;;72.37;;
4132;SDS011;2080;51.038;7.008;2022-12-18T14:34:50;345.73;;;66.60;;
4132;SDS011;2080;51.038;7.008;2022-12-18T14:37:23;336.37;;;67.87;;
4132;SDS011;2080;51.038;7.008;2022-12-18T14:39:51;382.93;;;131.27;;
4132;SDS011;2080;51.038;7.008;2022-12-18T14:42:17;327.13;;;52.30;;
4132;SDS011;2080;51.038;7.008;2022-12-18T14:44:42;368.93;;;65.17;;
4132;SDS011;2080;51.038;7.008;2022-12-18T14:47:12;319.53;;;52.00;;
4132;SDS011;2080;51.038;7.008;2022-12-18T14:49:40;337.80;;;76.33;;
4132;SDS011;2080;51.038;7.008;2022-12-18T14:52:13;335.67;;;58.43;;
4132;SDS011;2080;51.038;7.008;2022-12-18T14:54:41;350.33;;;81.33;;
4132;SDS011;2080;51.038;7.008;2022-12-18T14:59:36;335.77;;;72.20;;
4132;SDS011;2080;51.038;7.008;2022-12-18T15:04:39;348.40;;;75.03;;
4132;SDS011;2080;51.038;7.008;2022-12-18T15:07:16;355.17;;;106.63;;
4132;SDS011;2080;51.038;7.008;2022-12-18T15:09:59;384.80;;;138.90;;
4132;SDS011;2080;51.038;7.008;2022-12-18T15:12:26;356.73;;;102.97;;
4132;SDS011;2080;51.038;7.008;2022-12-18T15:14:53;346.80;;;87.87;;
4132;SDS011;2080;51.038;7.008;2022-12-18T15:17:22;358.80;;;105.43;;
4132;SDS011;2080;51.038;7.008;2022-12-18T15:19:53;391.33;;;149.07;;
4132;SDS011;2080;51.038;7.008;2022-12-18T15:22:38;398.77;;;191.00;;
4132;SDS011;2080;51.038;7.008;2022-12-18T15:25:20;383.67;;;165.27;;
4132;SDS011;2080;51.038;7.008;2022-12-18T15:27:50;414.47;;;237.13;;
4132;SDS011;2080;51.038;7.008;2022-12-18T15:30:19;422.57;;;239.37;;
4132;SDS011;2080;51.038;7.008;2022-12-18T15:32:46;404.70;;;202.57;;
4132;SDS011;2080;51.038;7.008;2022-12-18T15:37:43;402.00;;;215.73;;
4132;SDS011;2080;51.038;7.008;2022-12-18T15:40:16;410.57;;;222.20;;
4132;SDS011;2080;51.038;7.008;2022-12-18T15:42:41;412.70;;;237.90;;
4132;SDS011;2080;51.038;7.008;2022-12-18T15:45:25;427.60;;;265.50;;
4132;SDS011;2080;51.038;7.008;2022-12-18T15:47:50;417.47;;;192.90;;
4132;SDS011;2080;51.038;7.008;2022-12-18T15:50:15;427.70;;;261.43;;
4132;SDS011;2080;51.038;7.008;2022-12-18T15:52:43;432.47;;;292.43;;
4132;SDS011;2080;51.038;7.008;2022-12-18T15:55:12;436.87;;;292.67;;
4132;SDS011;2080;51.038;7.008;2022-12-18T15:57:56;453.57;;;312.63;;
4132;SDS011;2080;51.038;7.008;2022-12-18T16:00:24;443.13;;;306.87;;
4132;SDS011;2080;51.038;7.008;2022-12-18T16:02:50;458.57;;;365.13;;
4132;SDS011;2080;51.038;7.008;2022-12-18T16:05:16;449.77;;;329.97;;
4132;SDS011;2080;51.038;7.008;2022-12-18T16:07:42;456.47;;;348.27;;
4132;SDS011;2080;51.038;7.008;2022-12-18T16:10:08;451.53;;;347.00;;
4132;SDS011;2080;51.038;7.008;2022-12-18T16:12:33;532.23;;;443.77;;
4132;SDS011;2080;51.038;7.008;2022-12-18T16:15:01;451.17;;;353.37;;
4132;SDS011;2080;51.038;7.008;2022-12-18T16:17:29;433.40;;;296.50;;
4132;SDS011;2080;51.038;7.008;2022-12-18T16:19:54;430.03;;;271.33;;
4132;SDS011;2080;51.038;7.008;2022-12-18T16:22:26;444.97;;;332.73;;
4132;SDS011;2080;51.038;7.008;2022-12-18T16:24:53;440.87;;;296.43;;